sensor_id;sensor_type;location;lat;lon;timestamp;temperature;humidity
7494;DHT22;3788;49.902;8.590;2023-11-21T00:02:14;9.90;99.90
7494;DHT22;3788;49.902;8.590;2023-11-21T00:04:41;9.80;99.90
7494;DHT22;3788;49.902;8.590;2023-11-21T00:07:09;9.80;99.90
7494;DHT22;3788;49.902;8.590;2023-11-21T00:09:35;9.80;99.90
7494;DHT22;3788;49.902;8.590;2023-11-21T00:12:03;9.80;99.90
7494;DHT22;3788;49.902;8.590;2023-11-21T00:14:30;9.80;99.90
7494;DHT22;3788;49.902;8.590;2023-11-21T00:16:56;9.80;99.90
7494;DHT22;3788;49.902;8.590;2023-11-21T00:19:23;9.70;99.90
7494;DHT22;3788;49.902;8.590;2023-11-21T00:21:50;9.70;99.90
7494;DHT22;3788;49.902;8.590;2023-11-21T00:24:18;9.70;99.90
7494;DHT22;3788;49.902;8.590;2023-11-21T00:26:44;9.70;99.90
7494;DHT22;3788;49.902;8.590;2023-11-21T00:31:42;9.70;99.90
7494;DHT22;3788;49.902;8.590;2023-11-21T00:34:09;9.70;99.90
7494;DHT22;3788;49.902;8.590;2023-11-21T00:36:36;9.60;99.90
7494;DHT22;3788;49.902;8.590;2023-11-21T00:39:03;9.60;99.90
7494;DHT22;3788;49.902;8.590;2023-11-21T00:41:32;9.60;99.90
7494;DHT22;3788;49.902;8.590;2023-11-21T00:44:00;9.60;99.90
7494;DHT22;3788;49.902;8.590;2023-11-21T00:46:26;9.60;99.90
7494;DHT22;3788;49.902;8.590;2023-11-21T00:48:54;9.60;99.90
7494;DHT22;3788;49.902;8.590;2023-11-21T00:51:21;9.60;99.90
7494;DHT22;3788;49.902;8.590;2023-11-21T00:53:48;9.60;99.90
7494;DHT22;3788;49.902;8.590;2023-11-21T00:56:15;9.60;99.90
7494;DHT22;3788;49.902;8.590;2023-11-21T00:58:43;9.50;99.90
7494;DHT22;3788;49.902;8.590;2023-11-21T01:01:12;9.50;99.90
7494;DHT22;3788;49.902;8.590;2023-11-21T01:03:38;9.50;99.90
7494;DHT22;3788;49.902;8.590;2023-11-21T01:06:05;9.60;99.90
7494;DHT22;3788;49.902;8.590;2023-11-21T01:08:33;9.60;99.90
7494;DHT22;3788;49.902;8.590;2023-11-21T01:11:00;9.60;99.90
7494;DHT22;3788;49.902;8.590;2023-11-21T01:13:27;9.60;99.90
7494;DHT22;3788;49.902;8.590;2023-11-21T01:15:56;9.60;99.90
7494;DHT22;3788;49.902;8.590;2023-11-21T01:18:23;9.60;99.90
7494;DHT22;3788;49.902;8.590;2023-11-21T01:20:51;9.50;99.90
7494;DHT22;3788;49.902;8.590;2023-11-21T01:23:19;9.60;99.90
7494;DHT22;3788;49.902;8.590;2023-11-21T01:25:45;9.60;99.90
7494;DHT22;3788;49.902;8.590;2023-11-21T01:28:12;9.50;99.90
7494;DHT22;3788;49.902;8.590;2023-11-21T01:30:39;9.60;99.90
7494;DHT22;3788;49.902;8.590;2023-11-21T01:33:07;9.50;99.90
7494;DHT22;3788;49.902;8.590;2023-11-21T01:35:34;9.50;99.90
7494;DHT22;3788;49.902;8.590;2023-11-21T01:38:01;9.60;99.90
7494;DHT22;3788;49.902;8.590;2023-11-21T01:40:29;9.60;99.90
7494;DHT22;3788;49.902;8.590;2023-11-21T01:42:56;9.60;99.90
7494;DHT22;3788;49.902;8.590;2023-11-21T01:45:23;9.50;99.90
7494;DHT22;3788;49.902;8.590;2023-11-21T01:47:50;9.60;99.90
7494;DHT22;3788;49.902;8.590;2023-11-21T01:50:18;9.60;99.90
7494;DHT22;3788;49.902;8.590;2023-11-21T01:52:46;9.60;99.90
7494;DHT22;3788;49.902;8.590;2023-11-21T01:55:16;9.60;99.90
7494;DHT22;3788;49.902;8.590;2023-11-21T01:57:45;9.60;99.90
7494;DHT22;3788;49.902;8.590;2023-11-21T02:00:13;9.60;99.90
7494;DHT22;3788;49.902;8.590;2023-11-21T02:02:42;9.60;99.90
7494;DHT22;3788;49.902;8.590;2023-11-21T02:05:10;9.60;99.90
7494;DHT22;3788;49.902;8.590;2023-11-21T02:07:39;9.60;99.90
7494;DHT22;3788;49.902;8.590;2023-11-21T02:10:06;9.70;99.90
7494;DHT22;3788;49.902;8.590;2023-11-21T02:12:33;9.70;99.90
7494;DHT22;3788;49.902;8.590;2023-11-21T02:15:02;9.70;99.90
7494;DHT22;3788;49.902;8.590;2023-11-21T02:17:30;9.70;99.90
7494;DHT22;3788;49.902;8.590;2023-11-21T02:19:58;9.70;99.90
7494;DHT22;3788;49.902;8.590;2023-11-21T02:22:27;9.70;99.90
7494;DHT22;3788;49.902;8.590;2023-11-21T02:24:57;9.70;99.90
7494;DHT22;3788;49.902;8.590;2023-11-21T02:27:24;9.70;99.90
7494;DHT22;3788;49.902;8.590;2023-11-21T02:29:53;9.70;99.90
7494;DHT22;3788;49.902;8.590;2023-11-21T02:32:19;9.70;99.90
7494;DHT22;3788;49.902;8.590;2023-11-21T02:34:48;9.70;99.90
7494;DHT22;3788;49.902;8.590;2023-11-21T02:37:15;9.70;99.90
7494;DHT22;3788;49.902;8.590;2023-11-21T02:39:42;9.70;99.90
7494;DHT22;3788;49.902;8.590;2023-11-21T02:42:10;9.70;99.90
7494;DHT22;3788;49.902;8.590;2023-11-21T02:44:36;9.70;99.90
7494;DHT22;3788;49.902;8.590;2023-11-21T02:47:03;9.70;99.90
7494;DHT22;3788;49.902;8.590;2023-11-21T02:49:31;9.70;99.90
7494;DHT22;3788;49.902;8.590;2023-11-21T02:52:01;9.70;99.90
7494;DHT22;3788;49.902;8.590;2023-11-21T02:54:28;9.70;99.90
7494;DHT22;3788;49.902;8.590;2023-11-21T02:56:56;9.70;99.90
7494;DHT22;3788;49.902;8.590;2023-11-21T02:59:23;9.70;99.90
7494;DHT22;3788;49.902;8.590;2023-11-21T03:01:51;9.70;99.90
7494;DHT22;3788;49.902;8.590;2023-11-21T03:04:17;9.70;99.90
7494;DHT22;3788;49.902;8.590;2023-11-21T03:06:45;9.70;99.90
7494;DHT22;3788;49.902;8.590;2023-11-21T03:09:11;9.70;99.90
7494;DHT22;3788;49.902;8.590;2023-11-21T03:11:39;9.70;99.90
7494;DHT22;3788;49.902;8.590;2023-11-21T03:14:05;9.70;99.90
7494;DHT22;3788;49.902;8.590;2023-11-21T03:16:33;9.70;99.90
7494;DHT22;3788;49.902;8.590;2023-11-21T03:19:00;9.80;99.90
7494;DHT22;3788;49.902;8.590;2023-11-21T03:21:27;9.80;99.90
7494;DHT22;3788;49.902;8.590;2023-11-21T03:23:54;9.80;99.90
7494;DHT22;3788;49.902;8.590;2023-11-21T03:26:21;9.90;99.90
7494;DHT22;3788;49.902;8.590;2023-11-21T03:28:48;9.90;99.90
7494;DHT22;3788;49.902;8.590;2023-11-21T03:31:15;10.00;99.90
7494;DHT22;3788;49.902;8.590;2023-11-21T03:33:44;10.00;99.90
7494;DHT22;3788;49.902;8.590;2023-11-21T03:36:11;10.00;99.90
7494;DHT22;3788;49.902;8.590;2023-11-21T03:38:38;10.10;99.90
7494;DHT22;3788;49.902;8.590;2023-11-21T03:41:05;10.10;99.90
7494;DHT22;3788;49.902;8.590;2023-11-21T03:43:32;10.00;99.90
7494;DHT22;3788;49.902;8.590;2023-11-21T03:45:58;10.00;99.90
7494;DHT22;3788;49.902;8.590;2023-11-21T03:48:25;10.10;99.90
7494;DHT22;3788;49.902;8.590;2023-11-21T03:50:53;10.10;99.90
7494;DHT22;3788;49.902;8.590;2023-11-21T03:53:20;10.10;99.90
7494;DHT22;3788;49.902;8.590;2023-11-21T03:55:47;10.10;99.90
7494;DHT22;3788;49.902;8.590;2023-11-21T03:58:14;10.20;99.90
7494;DHT22;3788;49.902;8.590;2023-11-21T04:00:41;10.20;99.90
7494;DHT22;3788;49.902;8.590;2023-11-21T04:03:08;10.20;99.90
7494;DHT22;3788;49.902;8.590;2023-11-21T04:05:34;10.20;99.90
7494;DHT22;3788;49.902;8.590;2023-11-21T04:08:03;10.20;99.90
7494;DHT22;3788;49.902;8.590;2023-11-21T04:12:57;10.20;99.90
7494;DHT22;3788;49.902;8.590;2023-11-21T04:15:25;10.20;99.90
7494;DHT22;3788;49.902;8.590;2023-11-21T04:17:51;10.20;99.90
7494;DHT22;3788;49.902;8.590;2023-11-21T04:20:18;10.20;99.90
7494;DHT22;3788;49.902;8.590;2023-11-21T04:22:45;10.20;99.90
7494;DHT22;3788;49.902;8.590;2023-11-21T04:25:16;10.30;99.90
7494;DHT22;3788;49.902;8.590;2023-11-21T04:27:44;10.20;99.90
7494;DHT22;3788;49.902;8.590;2023-11-21T04:30:12;10.20;99.90
7494;DHT22;3788;49.902;8.590;2023-11-21T04:32:39;10.20;99.90
7494;DHT22;3788;49.902;8.590;2023-11-21T04:35:06;10.10;99.90
7494;DHT22;3788;49.902;8.590;2023-11-21T04:37:34;10.20;99.90
7494;DHT22;3788;49.902;8.590;2023-11-21T04:40:00;10.10;99.90
7494;DHT22;3788;49.902;8.590;2023-11-21T04:42:33;10.10;99.90
7494;DHT22;3788;49.902;8.590;2023-11-21T04:45:00;10.10;99.90
7494;DHT22;3788;49.902;8.590;2023-11-21T04:47:30;10.10;99.90
7494;DHT22;3788;49.902;8.590;2023-11-21T04:49:57;10.10;99.90
7494;DHT22;3788;49.902;8.590;2023-11-21T04:52:24;10.10;99.90
7494;DHT22;3788;49.902;8.590;2023-11-21T04:54:50;10.10;99.90
7494;DHT22;3788;49.902;8.590;2023-11-21T04:57:19;10.10;99.90
7494;DHT22;3788;49.902;8.590;2023-11-21T04:59:48;10.10;99.90
7494;DHT22;3788;49.902;8.590;2023-11-21T05:02:15;10.10;99.90
7494;DHT22;3788;49.902;8.590;2023-11-21T05:04:44;10.10;99.90
7494;DHT22;3788;49.902;8.590;2023-11-21T05:07:11;10.10;99.90
7494;DHT22;3788;49.902;8.590;2023-11-21T05:09:41;10.10;99.90
7494;DHT22;3788;49.902;8.590;2023-11-21T05:12:09;10.10;99.90
7494;DHT22;3788;49.902;8.590;2023-11-21T05:14:36;10.10;99.90
7494;DHT22;3788;49.902;8.590;2023-11-21T05:17:04;10.10;99.90
7494;DHT22;3788;49.902;8.590;2023-11-21T05:19:30;10.10;99.90
7494;DHT22;3788;49.902;8.590;2023-11-21T05:21:58;10.10;99.90
7494;DHT22;3788;49.902;8.590;2023-11-21T05:24:26;10.00;99.90
7494;DHT22;3788;49.902;8.590;2023-11-21T05:26:52;10.00;99.90
7494;DHT22;3788;49.902;8.590;2023-11-21T05:29:19;10.00;99.90
7494;DHT22;3788;49.902;8.590;2023-11-21T05:31:45;10.00;99.90
7494;DHT22;3788;49.902;8.590;2023-11-21T05:34:14;10.00;99.90
7494;DHT22;3788;49.902;8.590;2023-11-21T05:36:42;9.90;99.90
7494;DHT22;3788;49.902;8.590;2023-11-21T05:39:09;9.90;99.90
7494;DHT22;3788;49.902;8.590;2023-11-21T05:41:36;9.90;99.90
7494;DHT22;3788;49.902;8.590;2023-11-21T05:44:03;9.80;99.90
7494;DHT22;3788;49.902;8.590;2023-11-21T05:46:30;9.80;99.90
7494;DHT22;3788;49.902;8.590;2023-11-21T05:48:57;9.80;99.90
7494;DHT22;3788;49.902;8.590;2023-11-21T05:51:25;9.70;99.90
7494;DHT22;3788;49.902;8.590;2023-11-21T05:53:52;9.70;99.90
7494;DHT22;3788;49.902;8.590;2023-11-21T05:56:18;9.70;99.90
7494;DHT22;3788;49.902;8.590;2023-11-21T05:58:45;9.60;99.90
7494;DHT22;3788;49.902;8.590;2023-11-21T06:01:11;9.60;99.90
7494;DHT22;3788;49.902;8.590;2023-11-21T06:03:38;9.60;99.90
7494;DHT22;3788;49.902;8.590;2023-11-21T06:06:05;9.60;99.90
7494;DHT22;3788;49.902;8.590;2023-11-21T06:08:33;9.50;99.90
7494;DHT22;3788;49.902;8.590;2023-11-21T06:11:00;9.50;99.90
7494;DHT22;3788;49.902;8.590;2023-11-21T06:13:29;9.50;99.90
7494;DHT22;3788;49.902;8.590;2023-11-21T06:15:56;9.50;99.90
7494;DHT22;3788;49.902;8.590;2023-11-21T06:18:22;9.50;99.90
7494;DHT22;3788;49.902;8.590;2023-11-21T06:20:49;9.50;99.90
7494;DHT22;3788;49.902;8.590;2023-11-21T06:23:17;9.50;99.90
7494;DHT22;3788;49.902;8.590;2023-11-21T06:25:45;9.50;99.90
7494;DHT22;3788;49.902;8.590;2023-11-21T06:28:12;9.50;99.90
7494;DHT22;3788;49.902;8.590;2023-11-21T06:30:42;9.60;99.90
7494;DHT22;3788;49.902;8.590;2023-11-21T06:33:09;9.60;99.90
7494;DHT22;3788;49.902;8.590;2023-11-21T06:35:36;9.60;99.90
7494;DHT22;3788;49.902;8.590;2023-11-21T06:38:05;9.70;99.90
7494;DHT22;3788;49.902;8.590;2023-11-21T06:40:32;9.70;99.90
7494;DHT22;3788;49.902;8.590;2023-11-21T06:43:01;9.70;99.90
7494;DHT22;3788;49.902;8.590;2023-11-21T06:45:27;9.70;99.90
7494;DHT22;3788;49.902;8.590;2023-11-21T06:47:54;9.80;99.90
7494;DHT22;3788;49.902;8.590;2023-11-21T06:50:21;9.80;99.90
7494;DHT22;3788;49.902;8.590;2023-11-21T06:52:48;9.80;99.90
7494;DHT22;3788;49.902;8.590;2023-11-21T06:55:15;9.80;99.90
7494;DHT22;3788;49.902;8.590;2023-11-21T06:57:44;9.80;99.90
7494;DHT22;3788;49.902;8.590;2023-11-21T07:00:15;9.80;99.90
7494;DHT22;3788;49.902;8.590;2023-11-21T07:02:43;9.80;99.90
7494;DHT22;3788;49.902;8.590;2023-11-21T07:05:10;9.80;99.90
7494;DHT22;3788;49.902;8.590;2023-11-21T07:07:36;9.80;99.90
7494;DHT22;3788;49.902;8.590;2023-11-21T07:10:04;9.80;99.90
7494;DHT22;3788;49.902;8.590;2023-11-21T07:12:31;9.80;99.90
7494;DHT22;3788;49.902;8.590;2023-11-21T07:14:58;9.80;99.90
7494;DHT22;3788;49.902;8.590;2023-11-21T07:17:26;9.90;99.90
7494;DHT22;3788;49.902;8.590;2023-11-21T07:19:53;9.90;99.90
7494;DHT22;3788;49.902;8.590;2023-11-21T07:22:20;9.90;99.90
7494;DHT22;3788;49.902;8.590;2023-11-21T07:24:48;9.90;99.90
7494;DHT22;3788;49.902;8.590;2023-11-21T07:27:16;9.90;99.90
7494;DHT22;3788;49.902;8.590;2023-11-21T07:29:42;9.90;99.90
7494;DHT22;3788;49.902;8.590;2023-11-21T07:32:09;9.90;99.90
7494;DHT22;3788;49.902;8.590;2023-11-21T07:34:37;9.90;99.90
7494;DHT22;3788;49.902;8.590;2023-11-21T07:37:04;9.90;99.90
7494;DHT22;3788;49.902;8.590;2023-11-21T07:39:30;9.90;99.90
7494;DHT22;3788;49.902;8.590;2023-11-21T07:41:57;9.90;99.90
7494;DHT22;3788;49.902;8.590;2023-11-21T07:44:24;9.90;99.90
7494;DHT22;3788;49.902;8.590;2023-11-21T07:46:51;10.00;99.90
7494;DHT22;3788;49.902;8.590;2023-11-21T07:49:22;10.00;99.90
7494;DHT22;3788;49.902;8.590;2023-11-21T07:51:50;10.00;99.90
7494;DHT22;3788;49.902;8.590;2023-11-21T07:54:17;10.00;99.90
7494;DHT22;3788;49.902;8.590;2023-11-21T07:56:44;10.00;99.90
7494;DHT22;3788;49.902;8.590;2023-11-21T07:59:11;10.00;99.90
7494;DHT22;3788;49.902;8.590;2023-11-21T08:01:38;10.10;99.90
7494;DHT22;3788;49.902;8.590;2023-11-21T08:04:06;10.10;99.90
7494;DHT22;3788;49.902;8.590;2023-11-21T08:06:33;10.10;99.90
7494;DHT22;3788;49.902;8.590;2023-11-21T08:09:02;10.10;99.90
7494;DHT22;3788;49.902;8.590;2023-11-21T08:11:28;10.10;99.90
7494;DHT22;3788;49.902;8.590;2023-11-21T08:13:57;10.10;99.90
7494;DHT22;3788;49.902;8.590;2023-11-21T08:16:24;10.00;99.90
7494;DHT22;3788;49.902;8.590;2023-11-21T08:18:51;10.00;99.90
7494;DHT22;3788;49.902;8.590;2023-11-21T08:21:18;10.10;99.90
7494;DHT22;3788;49.902;8.590;2023-11-21T08:23:45;10.10;99.90
7494;DHT22;3788;49.902;8.590;2023-11-21T08:26:16;10.10;99.90
7494;DHT22;3788;49.902;8.590;2023-11-21T08:28:42;10.20;99.90
7494;DHT22;3788;49.902;8.590;2023-11-21T08:31:09;10.20;99.90
7494;DHT22;3788;49.902;8.590;2023-11-21T08:33:36;10.20;99.90
7494;DHT22;3788;49.902;8.590;2023-11-21T08:36:07;10.20;99.90
7494;DHT22;3788;49.902;8.590;2023-11-21T08:38:33;10.20;99.90
7494;DHT22;3788;49.902;8.590;2023-11-21T08:41:03;10.30;99.90
7494;DHT22;3788;49.902;8.590;2023-11-21T08:43:34;10.20;99.90
7494;DHT22;3788;49.902;8.590;2023-11-21T08:46:00;10.30;99.90
7494;DHT22;3788;49.902;8.590;2023-11-21T08:48:27;10.30;99.90
7494;DHT22;3788;49.902;8.590;2023-11-21T08:50:55;10.30;99.90
7494;DHT22;3788;49.902;8.590;2023-11-21T08:53:22;10.30;99.90
7494;DHT22;3788;49.902;8.590;2023-11-21T08:55:48;10.40;99.90
7494;DHT22;3788;49.902;8.590;2023-11-21T08:58:15;10.40;99.90
7494;DHT22;3788;49.902;8.590;2023-11-21T09:00:44;10.40;99.90
7494;DHT22;3788;49.902;8.590;2023-11-21T09:03:11;10.50;99.90
7494;DHT22;3788;49.902;8.590;2023-11-21T09:05:38;10.50;99.90
7494;DHT22;3788;49.902;8.590;2023-11-21T09:08:05;10.50;99.90
7494;DHT22;3788;49.902;8.590;2023-11-21T09:10:33;10.50;99.90
7494;DHT22;3788;49.902;8.590;2023-11-21T09:13:01;10.50;99.90
7494;DHT22;3788;49.902;8.590;2023-11-21T09:15:28;10.50;99.90
7494;DHT22;3788;49.902;8.590;2023-11-21T09:17:56;10.50;99.90
7494;DHT22;3788;49.902;8.590;2023-11-21T09:20:23;10.40;99.90
7494;DHT22;3788;49.902;8.590;2023-11-21T09:22:50;10.40;99.90
7494;DHT22;3788;49.902;8.590;2023-11-21T09:25:17;10.40;99.90
7494;DHT22;3788;49.902;8.590;2023-11-21T09:27:45;10.40;99.90
7494;DHT22;3788;49.902;8.590;2023-11-21T09:30:12;10.40;99.90
7494;DHT22;3788;49.902;8.590;2023-11-21T09:32:40;10.40;99.90
7494;DHT22;3788;49.902;8.590;2023-11-21T09:35:08;10.40;99.90
7494;DHT22;3788;49.902;8.590;2023-11-21T09:37:35;10.40;99.90
7494;DHT22;3788;49.902;8.590;2023-11-21T09:40:04;10.40;99.90
7494;DHT22;3788;49.902;8.590;2023-11-21T09:42:38;10.40;99.90
7494;DHT22;3788;49.902;8.590;2023-11-21T09:45:11;10.40;99.90
7494;DHT22;3788;49.902;8.590;2023-11-21T09:47:42;10.40;99.90
7494;DHT22;3788;49.902;8.590;2023-11-21T09:50:11;10.50;99.90
7494;DHT22;3788;49.902;8.590;2023-11-21T09:52:46;10.40;99.90
7494;DHT22;3788;49.902;8.590;2023-11-21T09:55:17;10.40;99.90
7494;DHT22;3788;49.902;8.590;2023-11-21T09:57:47;10.40;99.90
7494;DHT22;3788;49.902;8.590;2023-11-21T10:00:15;10.50;99.90
7494;DHT22;3788;49.902;8.590;2023-11-21T10:02:43;10.50;99.90
7494;DHT22;3788;49.902;8.590;2023-11-21T10:05:12;10.60;99.90
7494;DHT22;3788;49.902;8.590;2023-11-21T10:07:39;10.50;99.90
7494;DHT22;3788;49.902;8.590;2023-11-21T10:10:07;10.60;99.90
7494;DHT22;3788;49.902;8.590;2023-11-21T10:12:35;10.60;99.90
7494;DHT22;3788;49.902;8.590;2023-11-21T10:15:08;10.60;99.90
7494;DHT22;3788;49.902;8.590;2023-11-21T10:17:38;10.60;99.90
7494;DHT22;3788;49.902;8.590;2023-11-21T10:20:09;10.80;99.90
7494;DHT22;3788;49.902;8.590;2023-11-21T10:22:40;10.80;99.90
7494;DHT22;3788;49.902;8.590;2023-11-21T10:25:08;10.90;99.90
7494;DHT22;3788;49.902;8.590;2023-11-21T10:27:34;10.90;99.90
7494;DHT22;3788;49.902;8.590;2023-11-21T10:30:02;11.00;99.90
7494;DHT22;3788;49.902;8.590;2023-11-21T10:32:29;11.00;99.90
7494;DHT22;3788;49.902;8.590;2023-11-21T10:34:58;11.10;99.90
7494;DHT22;3788;49.902;8.590;2023-11-21T10:37:27;11.20;99.90
7494;DHT22;3788;49.902;8.590;2023-11-21T10:39:59;11.40;99.90
7494;DHT22;3788;49.902;8.590;2023-11-21T10:42:25;11.40;99.90
7494;DHT22;3788;49.902;8.590;2023-11-21T10:44:52;11.40;99.90
7494;DHT22;3788;49.902;8.590;2023-11-21T10:47:19;11.40;99.90
7494;DHT22;3788;49.902;8.590;2023-11-21T10:49:48;11.50;99.90
7494;DHT22;3788;49.902;8.590;2023-11-21T10:52:15;11.50;99.90
7494;DHT22;3788;49.902;8.590;2023-11-21T10:54:45;11.50;99.90
7494;DHT22;3788;49.902;8.590;2023-11-21T10:57:18;11.50;99.90
7494;DHT22;3788;49.902;8.590;2023-11-21T10:59:47;11.50;99.90
7494;DHT22;3788;49.902;8.590;2023-11-21T11:02:21;11.40;99.90
7494;DHT22;3788;49.902;8.590;2023-11-21T11:04:52;11.30;99.90
7494;DHT22;3788;49.902;8.590;2023-11-21T11:07:21;11.20;99.90
7494;DHT22;3788;49.902;8.590;2023-11-21T11:09:51;11.10;99.90
7494;DHT22;3788;49.902;8.590;2023-11-21T11:12:19;11.00;99.90
7494;DHT22;3788;49.902;8.590;2023-11-21T11:14:46;10.90;99.90
7494;DHT22;3788;49.902;8.590;2023-11-21T11:17:14;11.00;99.90
7494;DHT22;3788;49.902;8.590;2023-11-21T11:19:41;11.00;99.90
7494;DHT22;3788;49.902;8.590;2023-11-21T11:22:17;11.00;99.90
7494;DHT22;3788;49.902;8.590;2023-11-21T11:25:01;11.10;99.90
7494;DHT22;3788;49.902;8.590;2023-11-21T11:27:38;11.20;99.90
7494;DHT22;3788;49.902;8.590;2023-11-21T11:30:15;11.30;99.90
7494;DHT22;3788;49.902;8.590;2023-11-21T11:32:50;11.40;99.90
7494;DHT22;3788;49.902;8.590;2023-11-21T11:35:46;11.50;99.90
7494;DHT22;3788;49.902;8.590;2023-11-21T11:38:16;11.50;99.90
7494;DHT22;3788;49.902;8.590;2023-11-21T11:40:46;11.70;99.90
7494;DHT22;3788;49.902;8.590;2023-11-21T11:43:24;11.80;99.90
7494;DHT22;3788;49.902;8.590;2023-11-21T11:45:51;11.90;99.90
7494;DHT22;3788;49.902;8.590;2023-11-21T11:48:21;12.00;99.90
7494;DHT22;3788;49.902;8.590;2023-11-21T11:51:05;12.10;99.90
7494;DHT22;3788;49.902;8.590;2023-11-21T11:53:38;12.10;99.90
7494;DHT22;3788;49.902;8.590;2023-11-21T11:56:25;12.20;99.90
7494;DHT22;3788;49.902;8.590;2023-11-21T11:58:54;12.20;99.90
7494;DHT22;3788;49.902;8.590;2023-11-21T12:01:22;12.30;99.90
7494;DHT22;3788;49.902;8.590;2023-11-21T12:04:23;12.30;99.90
7494;DHT22;3788;49.902;8.590;2023-11-21T12:06:59;12.40;99.90
7494;DHT22;3788;49.902;8.590;2023-11-21T12:09:28;12.40;99.90
7494;DHT22;3788;49.902;8.590;2023-11-21T12:11:55;12.40;99.90
7494;DHT22;3788;49.902;8.590;2023-11-21T12:14:24;12.50;99.90
7494;DHT22;3788;49.902;8.590;2023-11-21T12:16:51;12.50;99.90
7494;DHT22;3788;49.902;8.590;2023-11-21T12:19:18;12.50;99.90
7494;DHT22;3788;49.902;8.590;2023-11-21T12:21:46;12.50;99.90
7494;DHT22;3788;49.902;8.590;2023-11-21T12:24:14;12.50;99.90
7494;DHT22;3788;49.902;8.590;2023-11-21T12:26:42;12.50;99.90
7494;DHT22;3788;49.902;8.590;2023-11-21T12:29:09;12.60;99.90
7494;DHT22;3788;49.902;8.590;2023-11-21T12:31:37;12.60;99.90
7494;DHT22;3788;49.902;8.590;2023-11-21T12:34:04;12.60;99.90
7494;DHT22;3788;49.902;8.590;2023-11-21T12:36:32;12.50;99.80
7494;DHT22;3788;49.902;8.590;2023-11-21T12:39:00;12.50;98.60
7494;DHT22;3788;49.902;8.590;2023-11-21T12:41:28;12.40;99.10
7494;DHT22;3788;49.902;8.590;2023-11-21T12:43:55;12.40;99.20
7494;DHT22;3788;49.902;8.590;2023-11-21T12:46:21;12.40;99.40
7494;DHT22;3788;49.902;8.590;2023-11-21T12:48:50;12.50;99.50
7494;DHT22;3788;49.902;8.590;2023-11-21T12:51:17;12.50;99.60
7494;DHT22;3788;49.902;8.590;2023-11-21T12:53:44;12.50;99.70
7494;DHT22;3788;49.902;8.590;2023-11-21T12:56:13;12.40;99.40
7494;DHT22;3788;49.902;8.590;2023-11-21T12:58:46;12.40;99.50
7494;DHT22;3788;49.902;8.590;2023-11-21T13:01:17;12.30;99.50
7494;DHT22;3788;49.902;8.590;2023-11-21T13:03:46;12.20;99.90
7494;DHT22;3788;49.902;8.590;2023-11-21T13:06:17;12.20;99.90
7494;DHT22;3788;49.902;8.590;2023-11-21T13:08:44;12.10;99.80
7494;DHT22;3788;49.902;8.590;2023-11-21T13:11:12;12.10;99.90
7494;DHT22;3788;49.902;8.590;2023-11-21T13:13:41;12.10;99.90
7494;DHT22;3788;49.902;8.590;2023-11-21T13:16:08;12.00;99.90
7494;DHT22;3788;49.902;8.590;2023-11-21T13:18:36;12.00;99.90
7494;DHT22;3788;49.902;8.590;2023-11-21T13:21:04;12.00;99.90
7494;DHT22;3788;49.902;8.590;2023-11-21T13:23:37;12.00;99.80
7494;DHT22;3788;49.902;8.590;2023-11-21T13:26:04;11.90;99.70
7494;DHT22;3788;49.902;8.590;2023-11-21T13:28:31;11.90;99.90
7494;DHT22;3788;49.902;8.590;2023-11-21T13:30:58;11.80;99.90
7494;DHT22;3788;49.902;8.590;2023-11-21T13:33:28;11.80;99.90
7494;DHT22;3788;49.902;8.590;2023-11-21T13:35:55;11.80;99.90
7494;DHT22;3788;49.902;8.590;2023-11-21T13:38:23;11.80;99.90
7494;DHT22;3788;49.902;8.590;2023-11-21T13:40:52;11.70;99.90
7494;DHT22;3788;49.902;8.590;2023-11-21T13:43:21;11.70;99.90
7494;DHT22;3788;49.902;8.590;2023-11-21T13:45:52;11.70;99.90
7494;DHT22;3788;49.902;8.590;2023-11-21T13:48:25;11.70;99.90
7494;DHT22;3788;49.902;8.590;2023-11-21T13:50:58;11.70;99.90
7494;DHT22;3788;49.902;8.590;2023-11-21T13:53:31;11.70;99.90
7494;DHT22;3788;49.902;8.590;2023-11-21T13:55:59;11.70;99.90
7494;DHT22;3788;49.902;8.590;2023-11-21T13:58:26;11.60;99.90
7494;DHT22;3788;49.902;8.590;2023-11-21T14:01:06;11.60;99.90
7494;DHT22;3788;49.902;8.590;2023-11-21T14:03:42;11.60;99.90
7494;DHT22;3788;49.902;8.590;2023-11-21T14:06:17;11.60;99.90
7494;DHT22;3788;49.902;8.590;2023-11-21T14:08:49;11.70;99.90
7494;DHT22;3788;49.902;8.590;2023-11-21T14:11:17;11.70;99.90
7494;DHT22;3788;49.902;8.590;2023-11-21T14:13:47;11.70;99.90
7494;DHT22;3788;49.902;8.590;2023-11-21T14:16:15;11.70;99.90
7494;DHT22;3788;49.902;8.590;2023-11-21T14:18:42;11.70;99.90
7494;DHT22;3788;49.902;8.590;2023-11-21T14:21:18;11.70;99.90
7494;DHT22;3788;49.902;8.590;2023-11-21T14:23:44;11.60;99.90
7494;DHT22;3788;49.902;8.590;2023-11-21T14:26:12;11.60;99.90
7494;DHT22;3788;49.902;8.590;2023-11-21T14:28:41;11.50;99.90
7494;DHT22;3788;49.902;8.590;2023-11-21T14:31:08;11.50;99.90
7494;DHT22;3788;49.902;8.590;2023-11-21T14:33:38;11.50;99.90
7494;DHT22;3788;49.902;8.590;2023-11-21T14:36:06;11.50;99.90
7494;DHT22;3788;49.902;8.590;2023-11-21T14:38:34;11.50;99.90
7494;DHT22;3788;49.902;8.590;2023-11-21T14:41:01;11.50;99.90
7494;DHT22;3788;49.902;8.590;2023-11-21T14:43:28;11.50;99.90
7494;DHT22;3788;49.902;8.590;2023-11-21T14:45:56;11.50;99.90
7494;DHT22;3788;49.902;8.590;2023-11-21T14:48:24;11.40;99.90
7494;DHT22;3788;49.902;8.590;2023-11-21T14:51:07;11.40;99.90
7494;DHT22;3788;49.902;8.590;2023-11-21T14:53:53;11.40;99.90
7494;DHT22;3788;49.902;8.590;2023-11-21T14:56:19;11.40;99.90
7494;DHT22;3788;49.902;8.590;2023-11-21T14:58:52;11.30;99.90
7494;DHT22;3788;49.902;8.590;2023-11-21T15:01:20;11.30;99.90
7494;DHT22;3788;49.902;8.590;2023-11-21T15:03:56;11.30;99.90
7494;DHT22;3788;49.902;8.590;2023-11-21T15:06:22;11.30;99.90
7494;DHT22;3788;49.902;8.590;2023-11-21T15:08:56;11.30;99.90
7494;DHT22;3788;49.902;8.590;2023-11-21T15:11:44;11.30;99.90
7494;DHT22;3788;49.902;8.590;2023-11-21T15:14:13;11.30;99.90
7494;DHT22;3788;49.902;8.590;2023-11-21T15:16:46;11.20;99.90
7494;DHT22;3788;49.902;8.590;2023-11-21T15:19:17;11.20;99.90
7494;DHT22;3788;49.902;8.590;2023-11-21T15:21:50;11.20;99.90
7494;DHT22;3788;49.902;8.590;2023-11-21T15:24:16;11.10;99.90
7494;DHT22;3788;49.902;8.590;2023-11-21T15:26:43;11.10;99.90
7494;DHT22;3788;49.902;8.590;2023-11-21T15:29:10;11.10;99.90
7494;DHT22;3788;49.902;8.590;2023-11-21T15:31:38;11.10;99.90
7494;DHT22;3788;49.902;8.590;2023-11-21T15:34:10;11.00;99.90
7494;DHT22;3788;49.902;8.590;2023-11-21T15:36:37;10.90;99.90
7494;DHT22;3788;49.902;8.590;2023-11-21T15:39:05;10.90;99.90
7494;DHT22;3788;49.902;8.590;2023-11-21T15:41:33;10.90;99.90
7494;DHT22;3788;49.902;8.590;2023-11-21T15:43:59;10.80;99.90
7494;DHT22;3788;49.902;8.590;2023-11-21T15:46:26;10.80;99.90
7494;DHT22;3788;49.902;8.590;2023-11-21T15:48:53;10.80;99.90
7494;DHT22;3788;49.902;8.590;2023-11-21T15:51:21;10.80;99.90
7494;DHT22;3788;49.902;8.590;2023-11-21T15:53:47;10.70;99.90
7494;DHT22;3788;49.902;8.590;2023-11-21T15:56:14;10.70;99.90
7494;DHT22;3788;49.902;8.590;2023-11-21T15:58:43;10.70;99.90
7494;DHT22;3788;49.902;8.590;2023-11-21T16:01:11;10.60;99.90
7494;DHT22;3788;49.902;8.590;2023-11-21T16:03:39;10.50;99.90
7494;DHT22;3788;49.902;8.590;2023-11-21T16:06:06;10.50;99.90
7494;DHT22;3788;49.902;8.590;2023-11-21T16:08:36;10.50;99.90
7494;DHT22;3788;49.902;8.590;2023-11-21T16:11:04;10.50;99.90
7494;DHT22;3788;49.902;8.590;2023-11-21T16:13:30;10.40;99.90
7494;DHT22;3788;49.902;8.590;2023-11-21T16:15:57;10.40;99.90
7494;DHT22;3788;49.902;8.590;2023-11-21T16:18:25;10.40;99.90
7494;DHT22;3788;49.902;8.590;2023-11-21T16:20:52;10.40;99.90